createdAt,value
2023-05-23T00:02:32.132Z,8.00
2023-05-23T00:07:33.587Z,6.10
2023-05-23T00:12:35.103Z,6.55
2023-05-23T00:17:37.921Z,7.75
2023-05-23T00:22:42.970Z,7.10
2023-05-23T00:27:44.613Z,9.13
2023-05-23T00:32:46.061Z,8.65
2023-05-23T00:37:50.173Z,8.57
2023-05-23T00:42:51.585Z,9.30
2023-05-23T00:47:54.229Z,10.07
2023-05-23T00:52:57.804Z,9.82
2023-05-23T00:57:59.565Z,9.15
2023-05-23T01:03:01.668Z,9.07
2023-05-23T01:08:03.436Z,8.85
2023-05-23T01:13:34.227Z,8.00
2023-05-23T01:18:46.560Z,7.88
2023-05-23T01:24:10.926Z,7.13
2023-05-23T01:29:18.129Z,6.03
2023-05-23T01:34:21.168Z,7.07
2023-05-23T01:39:23.466Z,6.72
2023-05-23T01:44:24.945Z,7.50
2023-05-23T01:49:27.635Z,7.03
2023-05-23T01:54:30.202Z,6.43
2023-05-23T01:59:31.675Z,6.85
2023-05-23T02:04:33.316Z,7.00
2023-05-23T02:09:34.845Z,6.40
2023-05-23T02:14:37.513Z,7.13
2023-05-23T02:19:39.059Z,4.22
2023-05-23T02:24:41.009Z,6.07
2023-05-23T02:29:42.478Z,7.63
2023-05-23T02:34:46.546Z,8.55
2023-05-23T02:39:47.959Z,7.38
2023-05-23T02:44:49.644Z,7.95
2023-05-23T02:49:51.148Z,8.30
2023-05-23T02:54:52.612Z,8.25
2023-05-23T02:59:54.074Z,7.47
2023-05-23T03:04:56.166Z,7.03
2023-05-23T03:09:57.793Z,7.35
2023-05-23T03:14:59.284Z,6.53
2023-05-23T03:20:01.028Z,7.03
2023-05-23T03:25:02.883Z,6.40
2023-05-23T03:30:04.722Z,8.18
2023-05-23T03:35:06.714Z,5.95
2023-05-23T03:40:09.775Z,6.20
2023-05-23T03:45:11.354Z,6.63
2023-05-23T03:50:12.867Z,5.60
2023-05-23T03:55:14.549Z,7.03
2023-05-23T04:00:16.081Z,7.25
2023-05-23T04:05:17.966Z,7.57
2023-05-23T04:10:19.771Z,7.75
2023-05-23T04:15:21.626Z,8.43
2023-05-23T04:20:23.241Z,8.05
2023-05-23T04:25:24.701Z,8.10
2023-05-23T04:30:26.123Z,8.20
2023-05-23T04:35:30.423Z,9.35
2023-05-23T04:40:32.170Z,8.30
2023-05-23T04:45:33.937Z,8.25
2023-05-23T04:50:36.054Z,9.45
2023-05-23T04:55:37.652Z,7.50
2023-05-23T05:00:39.588Z,5.78
2023-05-23T05:05:41.522Z,6.30
2023-05-23T05:10:43.233Z,5.60
2023-05-23T05:15:44.712Z,6.35
2023-05-23T05:20:47.158Z,6.30
2023-05-23T05:25:48.645Z,6.07
2023-05-23T05:30:54.214Z,6.60
2023-05-23T05:35:56.071Z,4.80
2023-05-23T05:40:57.620Z,4.95
2023-05-23T05:45:59.147Z,3.75
2023-05-23T05:51:01.235Z,4.45
2023-05-23T05:56:03.052Z,4.68
2023-05-23T06:01:05.727Z,4.93
2023-05-23T06:06:08.942Z,5.10
2023-05-23T06:11:10.406Z,5.03
2023-05-23T06:16:12.062Z,5.03
2023-05-23T06:21:13.533Z,5.05
2023-05-23T06:26:14.946Z,4.18
2023-05-23T06:31:16.441Z,4.82
2023-05-23T06:36:17.959Z,3.15
2023-05-23T06:41:19.401Z,5.35
2023-05-23T06:46:21.006Z,6.03
2023-05-23T06:51:22.686Z,5.22
2023-05-23T06:56:24.278Z,5.90
2023-05-23T07:01:26.727Z,1.88
2023-05-23T07:06:28.471Z,4.90
2023-05-23T07:11:29.936Z,5.03
2023-05-23T07:16:31.496Z,4.68
2023-05-23T07:21:34.053Z,5.15
2023-05-23T07:26:35.571Z,4.13
2023-05-23T07:31:37.359Z,5.00
2023-05-23T07:36:41.076Z,3.75
2023-05-23T07:41:42.593Z,3.72
2023-05-23T07:46:44.035Z,3.45
2023-05-23T07:51:45.592Z,3.17
2023-05-23T07:56:47.252Z,2.72
2023-05-23T08:01:50.665Z,3.85
2023-05-23T08:07:04.928Z,3.50
2023-05-23T08:12:08.170Z,3.38
2023-05-23T08:17:12.402Z,3.25
2023-05-23T08:22:14.168Z,3.60
2023-05-23T08:27:15.619Z,2.95
2023-05-23T08:32:17.134Z,2.83
2023-05-23T08:37:18.715Z,3.33
2023-05-23T08:42:20.292Z,3.70
2023-05-23T08:47:22.124Z,3.88
2023-05-23T08:52:25.519Z,4.00
2023-05-23T08:57:28.779Z,3.33
2023-05-23T09:02:32.469Z,2.72
2023-05-23T09:07:34.400Z,3.85
2023-05-23T09:12:38.690Z,2.70
2023-05-23T09:17:40.617Z,3.42
2023-05-23T09:22:47.161Z,3.67
2023-05-23T09:27:48.646Z,3.92
2023-05-23T09:33:04.766Z,3.53
2023-05-23T09:38:08.248Z,3.47
2023-05-23T09:43:09.772Z,3.45
2023-05-23T09:48:14.614Z,3.00
2023-05-23T09:53:16.289Z,2.97
2023-05-23T09:58:19.572Z,3.00
2023-05-23T10:03:27.368Z,3.70
2023-05-23T10:08:45.955Z,4.00
2023-05-23T10:13:50.234Z,3.15
2023-05-23T10:18:57.755Z,2.72
2023-05-23T10:24:04.603Z,3.97
2023-05-23T10:29:07.494Z,3.13
2023-05-23T10:34:18.806Z,4.03
2023-05-23T10:39:33.217Z,3.25
2023-05-23T10:44:36.554Z,2.88
2023-05-23T10:49:40.011Z,3.35
2023-05-23T10:54:44.742Z,2.78
2023-05-23T10:59:47.343Z,2.78
2023-05-23T11:05:24.831Z,3.35
2023-05-23T11:10:28.875Z,3.45
2023-05-23T11:15:42.729Z,2.83
2023-05-23T11:20:45.143Z,2.35
2023-05-23T11:25:52.136Z,2.90
2023-05-23T11:30:53.672Z,2.38
2023-05-23T11:35:55.387Z,3.30
2023-05-23T11:40:56.995Z,3.38
2023-05-23T11:46:07.505Z,3.25
2023-05-23T11:51:09.146Z,2.90
2023-05-23T11:56:10.733Z,2.97
2023-05-23T12:01:13.559Z,2.65
2023-05-23T12:06:19.339Z,3.08
2023-05-23T12:11:20.956Z,2.80
2023-05-23T12:16:22.506Z,2.88
2023-05-23T12:21:26.718Z,2.88
2023-05-23T12:26:28.568Z,3.13
2023-05-23T12:31:30.060Z,2.45
2023-05-23T12:36:37.726Z,2.38
2023-05-23T12:41:45.490Z,2.65
2023-05-23T12:46:47.055Z,2.58
2023-05-23T12:51:48.829Z,2.80
2023-05-23T12:56:50.685Z,1.85
2023-05-23T13:01:52.135Z,2.40
2023-05-23T13:06:53.612Z,2.35
2023-05-23T13:11:55.279Z,2.47
2023-05-23T13:16:56.887Z,2.38
2023-05-23T13:21:58.478Z,2.42
2023-05-23T13:26:59.888Z,2.60
2023-05-23T13:32:01.394Z,3.03
2023-05-23T13:37:03.060Z,3.72
2023-05-23T13:42:04.733Z,2.30
2023-05-23T13:47:15.813Z,2.45
2023-05-23T13:52:17.383Z,2.45
2023-05-23T13:57:18.826Z,2.00
2023-05-23T14:02:21.684Z,2.58
2023-05-23T14:07:23.399Z,2.67
2023-05-23T14:12:24.839Z,2.78
2023-05-23T14:17:26.933Z,2.22
2023-05-23T14:22:28.412Z,2.88
2023-05-23T14:27:29.969Z,3.03
2023-05-23T14:32:35.678Z,2.40
2023-05-23T14:37:37.426Z,2.97
2023-05-23T14:42:38.903Z,3.05
2023-05-23T14:47:43.032Z,2.67
2023-05-23T14:52:44.555Z,2.40
2023-05-23T14:57:45.993Z,3.75
2023-05-23T15:02:47.517Z,3.20
2023-05-23T15:07:48.994Z,3.10
2023-05-23T15:12:50.510Z,2.53
2023-05-23T15:17:52.267Z,3.00
2023-05-23T15:22:53.768Z,3.10
2023-05-23T15:27:59.190Z,2.50
2023-05-23T15:33:01.718Z,2.85
2023-05-23T15:38:03.479Z,2.63
2023-05-23T15:43:05.092Z,2.40
2023-05-23T15:48:06.600Z,2.80
2023-05-23T15:53:08.403Z,3.10
2023-05-23T15:58:11.255Z,2.35
2023-05-23T16:03:12.853Z,2.40
2023-05-23T16:08:14.409Z,2.15
2023-05-23T16:13:17.884Z,2.85
2023-05-23T16:18:20.556Z,1.83
2023-05-23T16:23:23.673Z,2.78
2023-05-23T16:28:27.758Z,1.85
2023-05-23T16:33:31.852Z,2.38
2023-05-23T16:38:33.387Z,3.10
2023-05-23T16:43:35.063Z,2.58
2023-05-23T16:48:36.566Z,2.67
2023-05-23T16:53:38.102Z,2.53
2023-05-23T16:58:39.682Z,2.22
2023-05-23T17:03:41.545Z,2.60
2023-05-23T17:08:43.227Z,2.50
2023-05-23T17:13:44.967Z,2.70
2023-05-23T17:18:46.427Z,2.47
2023-05-23T17:23:48.161Z,2.97
2023-05-23T17:28:49.627Z,3.05
2023-05-23T17:33:51.068Z,2.45
2023-05-23T17:38:55.533Z,2.67
2023-05-23T17:43:57.026Z,2.58
2023-05-23T17:48:58.542Z,2.15
2023-05-23T17:54:00.222Z,2.47
2023-05-23T17:59:04.534Z,2.35
2023-05-23T18:04:06.050Z,2.27
2023-05-23T18:09:07.528Z,2.95
2023-05-23T18:14:09.298Z,2.25
2023-05-23T18:19:10.821Z,2.40
2023-05-23T18:24:12.388Z,2.47
2023-05-23T18:29:13.861Z,2.30
2023-05-23T18:34:15.524Z,2.25
2023-05-23T18:39:17.147Z,2.65
2023-05-23T18:44:20.666Z,1.95
2023-05-23T18:49:23.030Z,2.63
2023-05-23T18:54:24.752Z,2.00
2023-05-23T18:59:26.518Z,2.40
2023-05-23T19:04:28.054Z,2.47
2023-05-23T19:09:29.668Z,2.97
2023-05-23T19:14:31.202Z,2.95
2023-05-23T19:19:34.803Z,2.38
2023-05-23T19:24:37.305Z,3.40
2023-05-23T19:29:38.806Z,2.92
2023-05-23T19:34:40.269Z,2.58
2023-05-23T19:39:45.758Z,2.65
2023-05-23T19:44:47.302Z,2.75
2023-05-23T19:49:48.827Z,2.53
2023-05-23T19:54:50.262Z,3.13
2023-05-23T19:59:52.093Z,2.20
2023-05-23T20:04:53.631Z,2.55
2023-05-23T20:09:55.509Z,2.15
2023-05-23T20:14:57.502Z,2.60
2023-05-23T20:19:59.362Z,2.05
2023-05-23T20:25:01.432Z,2.85
2023-05-23T20:30:02.897Z,2.28
2023-05-23T20:35:04.740Z,2.33
2023-05-23T20:40:07.523Z,2.97
2023-05-23T20:45:09.477Z,2.58
2023-05-23T20:50:12.650Z,2.45
2023-05-23T20:55:14.906Z,2.95
2023-05-23T21:00:16.831Z,2.97
2023-05-23T21:05:18.313Z,2.65
2023-05-23T21:10:19.885Z,3.22
2023-05-23T21:15:21.454Z,2.38
2023-05-23T21:20:22.967Z,2.88
2023-05-23T21:25:24.564Z,2.67
2023-05-23T21:30:26.519Z,3.30
2023-05-23T21:35:28.097Z,2.58
2023-05-23T21:40:29.596Z,3.00
2023-05-23T21:45:31.188Z,3.08
2023-05-23T21:50:32.728Z,4.38
2023-05-23T21:55:34.338Z,3.33
2023-05-23T22:00:35.813Z,2.50
2023-05-23T22:05:37.384Z,3.30
2023-05-23T22:10:40.505Z,2.78
2023-05-23T22:15:42.261Z,2.38
2023-05-23T22:20:43.932Z,3.47
2023-05-23T22:25:45.892Z,3.13
2023-05-23T22:30:47.536Z,3.95
2023-05-23T22:35:48.967Z,3.38
2023-05-23T22:40:50.400Z,2.85
2023-05-23T22:45:52.442Z,2.45
2023-05-23T22:50:57.028Z,2.60
2023-05-23T22:55:58.597Z,2.60
2023-05-23T23:01:00.364Z,2.17
2023-05-23T23:06:01.894Z,2.80
2023-05-23T23:11:04.221Z,2.53
2023-05-23T23:16:06.504Z,3.28
2023-05-23T23:21:07.989Z,2.70
2023-05-23T23:26:09.469Z,2.40
2023-05-23T23:31:10.987Z,3.20
2023-05-23T23:36:12.462Z,2.38
2023-05-23T23:41:13.945Z,2.53
2023-05-23T23:46:15.467Z,2.70
2023-05-23T23:51:17.206Z,2.30
2023-05-23T23:56:18.652Z,3.13
